Time;durP1;ratioP1;P1;durP2;ratioP2;P2;SDS_P1;SDS_P2;PMS_P1;PMS_P2;Temp;Humidity;BMP_temperature;BMP_pressure;BME280_temperature;BME280_humidity;BME280_pressure;Samples;Min_cycle;Max_cycle;Signal;HPM_P1;HPM_P2
2023/09/20 00:01:34;;;;;;;11.10;5.50;;;;;;;20.05;43.18;100492.05;105651;1256;60710;-61
2023/09/20 00:04:07;;;;;;;9.90;5.80;;;;;;;20.04;43.18;100492.98;105370;1251;60471;-61
2023/09/20 00:06:35;;;;;;;9.40;6.20;;;;;;;20.04;43.29;100495.98;105771;1251;64893;-61
2023/09/20 00:09:04;;;;;;;8.20;5.20;;;;;;;20.05;43.77;100497.39;105816;1253;61375;-62
2023/09/20 00:11:31;;;;;;;7.80;5.50;;;;;;;20.04;43.84;100499.92;105246;1259;63690;-62
2023/09/20 00:13:59;;;;;;;9.60;6.10;;;;;;;20.04;43.47;100508.31;105162;1253;60562;-62
2023/09/20 00:16:29;;;;;;;13.60;6.20;;;;;;;20.04;42.93;100508.88;107460;1256;60325;-61
2023/09/20 00:18:57;;;;;;;7.40;5.30;;;;;;;20.04;42.80;100508.17;105819;1254;73871;-63
2023/09/20 00:21:25;;;;;;;9.30;6.00;;;;;;;20.05;42.95;100512.48;105145;1258;61482;-61
2023/09/20 00:23:53;;;;;;;8.20;5.50;;;;;;;20.06;42.90;100511.34;105945;1258;66833;-60
2023/09/20 00:26:20;;;;;;;10.80;4.90;;;;;;;20.06;43.27;100513.92;105190;1254;60578;-60
2023/09/20 00:28:49;;;;;;;8.80;5.40;;;;;;;20.06;43.30;100513.10;105593;1257;60818;-61
2023/09/20 00:31:16;;;;;;;9.40;5.50;;;;;;;20.04;43.47;100513.45;105403;1254;64994;-62
2023/09/20 00:33:44;;;;;;;7.80;5.40;;;;;;;20.04;43.92;100512.13;105510;1257;60781;-59
2023/09/20 00:36:21;;;;;;;8.60;5.40;;;;;;;20.02;44.33;100509.46;105615;1258;63688;-60
2023/09/20 00:38:49;;;;;;;9.40;5.90;;;;;;;19.99;45.28;100512.59;105280;1254;60472;-61
2023/09/20 00:41:16;;;;;;;8.40;5.50;;;;;;;19.97;46.12;100514.31;105325;1258;60616;-61
2023/09/20 00:43:44;;;;;;;12.00;6.00;;;;;;;19.95;46.85;100516.58;105404;1255;63644;-61
2023/09/20 00:46:12;;;;;;;7.80;5.40;;;;;;;19.92;46.79;100516.67;105527;1259;61814;-60
2023/09/20 00:48:41;;;;;;;8.10;5.50;;;;;;;19.89;46.55;100518.83;105382;1257;62574;-60
2023/09/20 00:51:09;;;;;;;9.70;5.80;;;;;;;19.87;46.93;100517.15;105548;1258;61118;-60
2023/09/20 00:53:37;;;;;;;7.30;5.30;;;;;;;19.84;47.03;100516.54;105429;1259;60348;-60
2023/09/20 00:56:06;;;;;;;11.00;6.00;;;;;;;19.82;47.22;100515.56;105787;1260;64868;-60
2023/09/20 00:58:36;;;;;;;10.10;5.80;;;;;;;19.81;47.42;100517.14;106608;1256;60439;-60
2023/09/20 01:01:05;;;;;;;10.40;5.50;;;;;;;19.80;47.83;100518.30;105365;1258;64670;-61
2023/09/20 01:03:35;;;;;;;8.40;5.20;;;;;;;19.79;47.99;100523.79;105446;1256;60619;-61
2023/09/20 01:06:04;;;;;;;7.70;5.30;;;;;;;19.76;47.73;100532.09;105118;1253;60325;-61
2023/09/20 01:08:35;;;;;;;8.80;5.40;;;;;;;19.74;47.41;100534.13;105420;1257;65307;-60
2023/09/20 01:11:03;;;;;;;7.60;5.90;;;;;;;19.72;47.34;100535.20;105326;1260;61744;-61
2023/09/20 01:13:32;;;;;;;10.10;5.30;;;;;;;19.71;47.12;100530.89;105958;1255;63672;-61
2023/09/20 01:16:01;;;;;;;9.80;5.30;;;;;;;19.69;46.36;100531.05;105488;1257;60535;-60
2023/09/20 01:18:29;;;;;;;10.40;5.70;;;;;;;19.70;46.02;100529.98;105863;1257;60547;-62
2023/09/20 01:20:57;;;;;;;8.40;4.90;;;;;;;19.68;45.66;100530.29;105310;1263;64892;-62
2023/09/20 01:23:26;;;;;;;7.50;5.30;;;;;;;19.69;44.86;100534.98;105420;1255;61724;-62
2023/09/20 01:25:55;;;;;;;8.70;5.30;;;;;;;19.70;44.44;100537.86;105202;1258;62484;-61
2023/09/20 01:28:28;;;;;;;10.20;5.40;;;;;;;19.72;44.38;100537.69;106942;1257;60555;-61
2023/09/20 01:30:58;;;;;;;9.80;4.90;;;;;;;19.75;44.31;100542.03;105350;1257;60555;-60
2023/09/20 01:33:26;;;;;;;8.60;5.00;;;;;;;19.78;44.33;100543.30;105471;1257;64860;-60
2023/09/20 01:35:55;;;;;;;7.80;5.00;;;;;;;19.79;44.19;100540.08;105498;1258;61410;-60
2023/09/20 01:38:25;;;;;;;7.90;5.30;;;;;;;19.82;44.25;100541.72;105281;1254;63728;-61
2023/09/20 01:40:55;;;;;;;7.40;5.20;;;;;;;19.84;44.14;100543.64;105500;1254;60571;-62
2023/09/20 01:43:22;;;;;;;8.40;5.30;;;;;;;19.84;44.10;100539.36;105215;1257;60510;-63
2023/09/20 01:45:50;;;;;;;12.30;5.80;;;;;;;19.85;44.05;100538.18;105480;1251;63764;-61
2023/09/20 01:48:17;;;;;;;7.20;5.40;;;;;;;19.85;44.00;100538.52;105174;1256;61379;-60
2023/09/20 01:50:47;;;;;;;8.20;5.00;;;;;;;19.86;44.09;100536.61;105391;1259;62667;-61
2023/09/20 01:53:14;;;;;;;7.90;5.40;;;;;;;19.85;44.09;100536.48;105511;1254;60588;-59
2023/09/20 01:55:43;;;;;;;7.80;5.40;;;;;;;19.84;44.22;100540.20;105548;1254;60486;-60
2023/09/20 01:58:14;;;;;;;7.30;5.40;;;;;;;19.85;44.73;100540.69;105133;1254;63734;-60
2023/09/20 02:00:42;;;;;;;9.50;5.50;;;;;;;19.85;45.52;100540.46;106485;1258;62495;-62
2023/09/20 02:03:16;;;;;;;9.70;5.70;;;;;;;19.85;46.20;100540.30;105693;1260;62490;-61
2023/09/20 02:05:47;;;;;;;7.90;5.80;;;;;;;19.84;46.26;100539.70;105534;1254;60636;-56
2023/09/20 02:08:16;;;;;;;10.00;5.70;;;;;;;19.82;46.10;100538.27;105120;1260;59546;-57
2023/09/20 02:10:45;;;;;;;7.90;5.60;;;;;;;19.81;46.40;100540.80;106409;1254;64857;-57
2023/09/20 02:13:15;;;;;;;9.30;5.10;;;;;;;19.80;47.16;100544.73;105392;1251;61882;-56
2023/09/20 02:15:44;;;;;;;8.70;5.70;;;;;;;19.80;47.45;100546.03;105666;1256;63717;-55
2023/09/20 02:18:12;;;;;;;12.40;5.70;;;;;;;19.79;47.57;100547.18;105313;1254;60635;-57
2023/09/20 02:20:40;;;;;;;8.40;5.60;;;;;;;19.79;47.53;100545.77;105662;1256;60445;-56
2023/09/20 02:23:12;;;;;;;8.60;5.90;;;;;;;19.79;47.49;100546.17;105331;1258;64849;-57
2023/09/20 02:25:42;;;;;;;9.30;5.90;;;;;;;19.77;47.20;100542.46;105622;1254;61845;-57
2023/09/20 02:28:11;;;;;;;7.80;5.20;;;;;;;19.76;47.34;100540.13;105677;1254;63744;-57
2023/09/20 02:30:41;;;;;;;9.50;6.00;;;;;;;19.74;47.53;100543.89;105489;1255;60931;-58
2023/09/20 02:33:10;;;;;;;9.70;5.60;;;;;;;19.72;47.47;100542.67;105364;1257;60441;-56
2023/09/20 02:35:39;;;;;;;9.50;6.10;;;;;;;19.71;47.66;100544.81;105744;1254;64863;-57
2023/09/20 02:38:09;;;;;;;8.50;5.40;;;;;;;19.69;47.84;100545.33;105724;1257;61333;-58
2023/09/20 02:40:37;;;;;;;9.60;5.90;;;;;;;19.67;47.99;100547.51;105329;1257;64242;-58
2023/09/20 02:43:09;;;;;;;8.60;5.90;;;;;;;19.65;48.12;100545.61;105631;1258;60704;-58
2023/09/20 02:45:39;;;;;;;13.50;6.10;;;;;;;19.63;48.23;100545.67;105758;1255;60980;-58
2023/09/20 02:48:07;;;;;;;8.60;5.80;;;;;;;19.62;48.36;100542.95;105560;1254;63805;-59
2023/09/20 02:50:36;;;;;;;8.90;6.00;;;;;;;19.59;48.43;100543.27;105595;1260;60492;-60
2023/09/20 02:53:05;;;;;;;7.90;5.90;;;;;;;19.57;48.53;100544.45;105821;1257;62448;-61
2023/09/20 02:55:34;;;;;;;8.40;5.90;;;;;;;19.54;48.61;100540.63;105293;1253;60651;-62
2023/09/20 02:58:01;;;;;;;7.80;5.60;;;;;;;19.53;48.84;100546.64;105223;1251;60414;-61
2023/09/20 03:00:30;;;;;;;8.00;5.30;;;;;;;19.52;49.02;100541.98;105114;1258;64962;-58
2023/09/20 03:03:02;;;;;;;10.90;6.60;;;;;;;19.50;49.33;100542.20;105944;1254;62005;-60
2023/09/20 03:05:32;;;;;;;8.00;5.70;;;;;;;19.48;49.80;100541.92;105896;1257;63742;-61
2023/09/20 03:08:04;;;;;;;9.70;6.00;;;;;;;19.44;50.04;100543.00;105311;1255;60546;-61
2023/09/20 03:10:33;;;;;;;10.90;6.30;;;;;;;19.42;50.33;100542.63;105827;1251;60559;-62
2023/09/20 03:13:03;;;;;;;8.40;6.40;;;;;;;19.38;50.28;100538.41;105704;1251;63725;-60
2023/09/20 03:15:32;;;;;;;6.70;4.60;;;;;;;19.35;50.44;100536.86;105975;1255;61320;-61
2023/09/20 03:18:05;;;;;;;8.80;5.80;;;;;;;19.32;50.62;100532.51;106573;1253;63740;-59
2023/09/20 03:20:33;;;;;;;8.10;5.50;;;;;;;19.30;51.14;100529.48;106565;1258;60491;-62
2023/09/20 03:23:05;;;;;;;9.10;5.60;;;;;;;19.29;51.64;100529.25;107220;1254;59267;-60
2023/09/20 03:25:35;;;;;;;11.50;6.10;;;;;;;19.28;52.02;100527.25;105728;1254;64923;-56
2023/09/20 03:28:24;;;;;;;9.10;5.90;;;;;;;19.26;52.11;100525.05;106039;1254;61474;-58
2023/09/20 03:30:55;;;;;;;10.10;6.20;;;;;;;19.22;52.46;100519.57;105441;1256;62470;-56
2023/09/20 03:33:23;;;;;;;8.30;5.70;;;;;;;19.19;52.88;100517.35;106039;1251;60527;-56
2023/09/20 03:35:52;;;;;;;9.70;5.80;;;;;;;19.16;53.63;100517.10;105266;1260;60363;-64
2023/09/20 03:38:21;;;;;;;7.10;5.10;;;;;;;19.18;54.25;100519.72;105150;1253;64982;-56
2023/09/20 03:40:51;;;;;;;7.40;5.20;;;;;;;19.19;54.92;100524.21;105187;1251;61423;-56
2023/09/20 03:43:18;;;;;;;7.80;5.40;;;;;;;19.21;55.41;100530.41;105323;1257;64019;-61
2023/09/20 03:45:51;;;;;;;7.70;5.70;;;;;;;19.21;55.82;100532.71;105230;1253;60470;-61
2023/09/20 03:48:19;;;;;;;8.50;6.10;;;;;;;19.19;56.28;100525.09;105410;1254;62488;-61
2023/09/20 03:50:46;;;;;;;9.50;6.30;;;;;;;19.18;56.70;100523.21;105314;1260;64865;-62
2023/09/20 03:53:14;;;;;;;8.60;5.60;;;;;;;19.17;56.82;100524.48;105408;1254;61970;-62
2023/09/20 03:55:46;;;;;;;9.70;5.90;;;;;;;19.13;57.10;100521.17;105535;1254;64178;-59
2023/09/20 03:58:14;;;;;;;7.60;5.30;;;;;;;19.08;57.12;100520.97;105424;1257;60701;-54
2023/09/20 04:00:44;;;;;;;7.80;5.40;;;;;;;19.03;57.14;100522.54;105099;1254;60412;-62
2023/09/20 04:03:19;;;;;;;8.90;5.30;;;;;;;19.01;57.62;100517.55;105207;1259;63907;-59
2023/09/20 04:05:47;;;;;;;8.10;5.50;;;;;;;19.05;57.71;100515.63;105091;1254;61340;-59
2023/09/20 04:08:19;;;;;;;8.20;5.30;;;;;;;19.12;57.72;100518.37;105297;1254;64280;-63
2023/09/20 04:10:47;;;;;;;8.40;5.50;;;;;;;19.17;57.88;100521.48;105246;1253;60679;-60
2023/09/20 04:13:14;;;;;;;9.20;5.80;;;;;;;19.20;57.79;100523.23;105047;1251;60486;-57
2023/09/20 04:15:42;;;;;;;8.10;5.50;;;;;;;19.23;58.04;100526.73;105252;1253;63646;-54
2023/09/20 04:18:12;;;;;;;8.80;6.20;;;;;;;19.26;58.02;100524.32;106436;1253;61307;-53
2023/09/20 04:20:45;;;;;;;8.10;5.10;;;;;;;19.27;58.11;100521.70;105312;1257;62418;-55
2023/09/20 04:23:15;;;;;;;8.10;5.90;;;;;;;19.27;58.18;100523.27;104993;1253;60529;-59
2023/09/20 04:25:45;;;;;;;6.80;4.70;;;;;;;19.29;58.30;100527.36;105214;1258;60528;-59
2023/09/20 04:28:15;;;;;;;7.80;4.50;;;;;;;19.34;58.49;100524.48;105240;1254;65422;-62
2023/09/20 04:30:42;;;;;;;7.40;4.70;;;;;;;19.39;58.62;100526.85;105304;1254;70113;-62
2023/09/20 04:33:13;;;;;;;7.90;5.10;;;;;;;19.42;58.68;100527.11;105186;1254;63674;-60
2023/09/20 04:35:43;;;;;;;8.20;5.20;;;;;;;19.44;59.09;100521.31;105434;1253;60426;-60
2023/09/20 04:38:16;;;;;;;9.20;5.30;;;;;;;19.46;59.19;100523.77;105198;1257;60557;-61
2023/09/20 04:40:43;;;;;;;8.40;5.10;;;;;;;19.47;59.26;100521.10;105146;1254;63720;-56
2023/09/20 04:43:14;;;;;;;7.80;4.90;;;;;;;19.48;59.31;100521.23;105109;1260;61652;-61
2023/09/20 04:45:43;;;;;;;6.30;4.20;;;;;;;19.50;59.22;100521.05;105079;1254;63941;-54
2023/09/20 04:48:13;;;;;;;6.80;4.30;;;;;;;19.53;59.20;100521.06;105011;1253;60470;-59
2023/09/20 04:50:42;;;;;;;11.50;5.90;;;;;;;19.56;59.31;100519.02;109204;1253;58230;-64
2023/09/20 04:53:09;;;;;;;6.40;4.80;;;;;;;19.63;58.95;100518.31;105577;1254;72921;-61
2023/09/20 04:55:38;;;;;;;9.50;5.00;;;;;;;19.66;58.82;100516.98;109156;1257;61761;-59
2023/09/20 04:58:08;;;;;;;11.70;4.80;;;;;;;19.70;58.67;100521.33;109281;1253;62467;-59
2023/09/20 05:00:37;;;;;;;7.30;4.50;;;;;;;19.73;58.21;100519.04;109291;1251;58417;-56
2023/09/20 05:03:11;;;;;;;7.40;4.60;;;;;;;19.76;57.82;100522.88;109187;1254;58605;-66
2023/09/20 05:05:40;;;;;;;8.50;4.90;;;;;;;19.77;57.66;100522.88;109178;1251;63646;-61
2023/09/20 05:08:09;;;;;;;7.90;4.40;;;;;;;19.80;57.56;100520.17;109158;1251;62020;-60
2023/09/20 05:10:37;;;;;;;6.90;4.30;;;;;;;19.86;56.93;100522.52;106464;1254;65057;-61
2023/09/20 05:13:08;;;;;;;8.10;4.40;;;;;;;19.88;56.42;100526.27;105568;1254;61404;-62
2023/09/20 05:15:41;;;;;;;8.10;4.60;;;;;;;19.85;56.35;100528.68;105845;1253;60674;-62
2023/09/20 05:18:13;;;;;;;6.70;4.60;;;;;;;19.83;56.40;100531.72;105556;1257;64866;-60
2023/09/20 05:20:48;;;;;;;12.30;4.80;;;;;;;19.81;56.50;100531.27;105543;1251;60560;-61
2023/09/20 05:23:17;;;;;;;8.10;5.20;;;;;;;19.78;56.43;100530.94;105316;1254;64044;-60
2023/09/20 05:25:48;;;;;;;7.70;5.10;;;;;;;19.76;56.75;100528.85;105428;1254;60895;-59
2023/09/20 05:28:19;;;;;;;7.80;5.30;;;;;;;19.76;56.53;100532.48;105470;1254;60553;-60
2023/09/20 05:30:51;;;;;;;7.80;4.90;;;;;;;19.74;56.40;100533.63;105580;1251;65737;-61
2023/09/20 05:33:20;;;;;;;8.40;4.90;;;;;;;19.69;56.19;100537.52;105295;1253;61339;-61
2023/09/20 05:35:49;;;;;;;10.30;5.30;;;;;;;19.63;56.04;100539.23;105549;1256;62425;-61
2023/09/20 05:38:21;;;;;;;9.50;5.40;;;;;;;19.59;56.02;100536.12;105557;1253;60414;-61
2023/09/20 05:40:57;;;;;;;8.00;5.00;;;;;;;19.62;56.40;100535.14;105924;1254;60533;-58
2023/09/20 05:43:32;;;;;;;7.80;5.10;;;;;;;19.69;56.24;100537.98;105884;1256;63719;-59
2023/09/20 05:46:03;;;;;;;9.00;4.70;;;;;;;19.74;56.19;100539.19;105834;1252;72105;-61
2023/09/20 05:48:31;;;;;;;7.90;5.10;;;;;;;19.76;56.06;100541.73;105532;1251;62826;-61
2023/09/20 05:50:59;;;;;;;9.30;6.10;;;;;;;19.78;56.23;100542.18;105997;1254;60559;-61
2023/09/20 05:53:28;;;;;;;8.40;5.80;;;;;;;19.81;56.35;100541.59;106007;1254;60397;-63
2023/09/20 05:55:55;;;;;;;10.50;5.50;;;;;;;19.86;56.43;100542.33;105234;1251;72965;-49
2023/09/20 05:58:23;;;;;;;11.80;5.70;;;;;;;19.90;56.30;100541.92;105308;1256;61336;-52
2023/09/20 06:00:51;;;;;;;10.00;5.20;;;;;;;19.91;56.13;100539.04;105185;1253;63791;-56
2023/09/20 06:03:19;;;;;;;12.80;5.60;;;;;;;19.94;56.31;100541.75;105249;1254;60473;-56
2023/09/20 06:05:48;;;;;;;7.70;5.10;;;;;;;20.02;56.47;100542.34;105187;1254;60517;-56
2023/09/20 06:08:15;;;;;;;7.80;5.30;;;;;;;20.11;56.25;100543.43;105140;1251;64950;-57
2023/09/20 06:10:44;;;;;;;9.10;5.30;;;;;;;20.18;55.68;100543.57;105088;1257;61375;-59
2023/09/20 06:13:11;;;;;;;7.00;5.00;;;;;;;20.22;55.28;100545.20;105253;1251;64245;-58
2023/09/20 06:15:39;;;;;;;8.90;5.40;;;;;;;20.27;55.25;100545.68;105369;1253;60582;-55
2023/09/20 06:18:09;;;;;;;7.80;5.20;;;;;;;20.29;55.07;100544.97;105196;1253;60454;-55
2023/09/20 06:20:45;;;;;;;9.00;5.80;;;;;;;20.29;55.16;100546.54;105200;1255;65002;-59
2023/09/20 06:23:14;;;;;;;8.60;5.90;;;;;;;20.31;54.94;100543.27;109264;1251;60449;-58
2023/09/20 06:25:42;;;;;;;9.80;5.60;;;;;;;20.34;54.72;100544.14;109231;1251;64069;-61
2023/09/20 06:28:13;;;;;;;7.30;5.30;;;;;;;20.37;54.57;100548.14;109199;1253;58537;-60
2023/09/20 06:30:44;;;;;;;8.00;5.80;;;;;;;20.39;54.51;100551.86;109299;1251;58066;-62
2023/09/20 06:33:12;;;;;;;8.10;5.60;;;;;;;20.44;54.53;100555.97;109167;1250;64882;-60
2023/09/20 06:35:40;;;;;;;9.80;5.20;;;;;;;20.49;54.32;100555.95;109244;1250;70324;-62
2023/09/20 06:38:09;;;;;;;15.70;5.60;;;;;;;20.53;54.32;100555.06;105819;1256;71245;-60
2023/09/20 06:40:39;;;;;;;9.00;5.80;;;;;;;20.57;54.11;100557.73;105575;1253;60479;-58
2023/09/20 06:43:07;;;;;;;8.30;5.90;;;;;;;20.59;53.75;100560.72;105800;1252;60335;-60
2023/09/20 06:45:35;;;;;;;11.50;5.70;;;;;;;20.60;53.54;100567.42;106700;1251;63629;-62
2023/09/20 06:48:04;;;;;;;8.10;5.40;;;;;;;20.61;53.52;100566.61;105854;1254;61300;-61
2023/09/20 06:50:33;;;;;;;9.10;5.80;;;;;;;20.62;53.57;100575.92;105770;1252;63709;-61
2023/09/20 06:53:00;;;;;;;8.80;5.50;;;;;;;20.63;53.15;100573.75;105282;1256;60541;-57
2023/09/20 06:55:28;;;;;;;9.70;5.20;;;;;;;20.60;53.02;100576.80;105251;1256;60351;-69
2023/09/20 06:57:56;;;;;;;7.90;5.60;;;;;;;20.58;53.04;100575.08;105177;1251;64890;-66
2023/09/20 07:00:41;;;;;;;7.30;5.20;;;;;;;20.58;52.97;100576.36;105461;1254;274444;-56
2023/09/20 07:15:31;;;;;;;9.00;5.40;;;;;;;20.97;52.85;100578.27;102765;1285;604424;-64
2023/09/20 07:17:59;;;;;;;8.60;5.40;;;;;;;21.52;51.66;100580.41;104853;1269;169443;-60
2023/09/20 07:20:28;;;;;;;10.20;6.10;;;;;;;21.55;51.39;100581.23;104265;1266;60070;-59
2023/09/20 07:22:56;;;;;;;17.20;5.90;;;;;;;21.57;51.37;100587.46;104370;1267;63390;-57
2023/09/20 07:25:27;;;;;;;7.90;6.00;;;;;;;21.59;51.33;100586.75;104291;1266;61891;-62
2023/09/20 07:27:57;;;;;;;8.10;5.90;;;;;;;21.60;51.28;100582.41;104143;1270;62517;-68
2023/09/20 07:30:31;;;;;;;9.60;5.70;;;;;;;21.64;51.19;100586.10;104969;1266;59373;-58
2023/09/20 07:33:02;;;;;;;10.60;6.40;;;;;;;21.67;50.96;100591.36;104891;1266;59336;-63
2023/09/20 07:35:48;;;;;;;8.70;5.80;;;;;;;21.68;51.03;100590.30;104467;1267;63307;-65
2023/09/20 07:38:36;;;;;;;10.80;5.70;;;;;;;21.72;50.81;100591.73;105147;1266;60096;-60
2023/09/20 07:41:17;;;;;;;9.50;5.90;;;;;;;21.77;51.09;100589.20;105661;1267;63774;-58
2023/09/20 07:43:47;;;;;;;8.20;5.60;;;;;;;21.83;51.51;100590.98;104285;1266;62242;-57
2023/09/20 07:59:45;;;;;;;9.50;5.70;;;;;;;22.30;50.95;100588.57;102676;1287;604244;-59
2023/09/20 08:02:15;;;;;;;9.10;5.50;;;;;;;22.76;50.58;100591.27;105131;1266;181587;-60
2023/09/20 08:04:42;;;;;;;7.40;5.60;;;;;;;22.81;50.33;100590.85;104442;1270;60710;-60
2023/09/20 08:07:09;;;;;;;10.90;5.90;;;;;;;22.84;50.32;100587.94;104557;1269;63580;-57
2023/09/20 08:09:36;;;;;;;8.70;5.70;;;;;;;22.86;50.34;100588.28;104197;1266;62171;-56
2023/09/20 08:12:04;;;;;;;9.80;5.90;;;;;;;22.86;50.35;100585.06;104257;1265;65884;-56
2023/09/20 08:14:32;;;;;;;8.30;5.80;;;;;;;22.86;50.31;100585.92;104425;1271;59404;-58
2023/09/20 08:19:44;;;;;;;8.90;6.20;;;;;;;22.88;50.94;100587.59;104344;1272;63635;-56
2023/09/20 08:22:15;;;;;;;8.90;5.90;;;;;;;22.90;50.54;100589.91;108353;1266;63073;-59
2023/09/20 09:00:49;;;;;;;8.60;5.20;;;;;;;22.83;50.13;100592.39;104785;1267;64308;-64
2023/09/20 09:03:17;;;;;;;11.90;6.20;;;;;;;22.87;50.66;100591.83;108568;1263;60125;-68
2023/09/20 09:05:45;;;;;;;9.40;6.00;;;;;;;22.92;50.54;100588.14;108558;1262;64060;-62
2023/09/20 09:08:13;;;;;;;8.40;5.70;;;;;;;22.96;50.26;100589.12;109048;1255;57767;-59
2023/09/20 09:10:40;;;;;;;8.60;5.80;;;;;;;23.00;50.24;100588.36;109175;1255;57658;-58
2023/09/20 09:13:07;;;;;;;8.30;5.80;;;;;;;23.05;50.16;100587.55;108634;1255;64605;-68
2023/09/20 09:15:35;;;;;;;7.70;5.50;;;;;;;23.11;50.14;100586.82;105192;1257;61926;-57
2023/09/20 09:18:02;;;;;;;9.40;5.80;;;;;;;23.16;50.16;100587.17;105525;1258;63880;-57
2023/09/20 09:20:29;;;;;;;8.40;6.30;;;;;;;23.23;50.58;100585.61;105521;1259;60915;-55
2023/09/20 09:22:56;;;;;;;9.70;5.70;;;;;;;23.29;50.52;100584.07;104959;1260;59910;-55
2023/09/20 09:25:31;;;;;;;8.90;5.70;;;;;;;23.37;50.73;100582.52;105566;1256;64458;-55
2023/09/20 09:27:59;;;;;;;8.00;5.10;;;;;;;23.44;50.19;100580.85;105354;1257;62085;-53
2023/09/20 09:30:26;;;;;;;8.00;5.60;;;;;;;23.51;50.17;100578.72;107905;1254;64512;-55
2023/09/20 09:32:53;;;;;;;9.20;5.80;;;;;;;23.58;50.28;100579.71;105070;1255;59664;-55
2023/09/20 09:35:22;;;;;;;10.90;5.90;;;;;;;23.67;50.13;100585.94;105511;1254;59656;-58
2023/09/20 09:38:20;;;;;;;8.80;6.10;;;;;;;23.75;49.56;100585.58;104993;1254;63681;-55
2023/09/20 09:40:52;;;;;;;10.30;5.80;;;;;;;23.83;49.48;100584.53;106696;1258;60524;-54
2023/09/20 09:43:19;;;;;;;9.80;5.90;;;;;;;23.93;49.63;100584.09;107357;1258;63984;-52
2023/09/20 09:45:50;;;;;;;10.40;5.70;;;;;;;24.04;49.15;100583.14;105775;1257;59731;-52
2023/09/20 09:48:16;;;;;;;11.90;5.50;;;;;;;24.14;48.38;100577.73;105005;1257;59652;-53
2023/09/20 09:50:46;;;;;;;10.00;5.80;;;;;;;24.21;48.17;100576.77;105051;1254;63295;-55
2023/09/20 09:53:15;;;;;;;8.40;5.10;;;;;;;24.28;48.10;100582.23;106657;1258;60464;-54
2023/09/20 09:55:42;;;;;;;7.70;5.70;;;;;;;24.34;47.87;100579.15;105256;1265;62937;-59
2023/09/20 09:58:12;;;;;;;7.90;5.90;;;;;;;24.40;47.78;100575.27;108373;1257;59625;-59
2023/09/20 10:00:40;;;;;;;8.90;5.70;;;;;;;24.45;47.46;100572.89;105839;1254;59706;-59
2023/09/20 10:03:34;;;;;;;8.90;5.50;;;;;;;24.51;47.49;100569.85;109066;1254;62890;-58
2023/09/20 10:06:09;;;;;;;9.20;5.40;;;;;;;24.56;47.87;100565.77;108674;1255;61375;-57
2023/09/20 10:08:38;;;;;;;8.10;5.50;;;;;;;24.62;47.89;100564.32;109200;1254;62734;-57
2023/09/20 10:11:06;;;;;;;10.90;5.80;;;;;;;24.69;47.68;100560.95;109239;1254;57607;-55
2023/09/20 10:13:34;;;;;;;10.60;5.80;;;;;;;24.74;46.87;100560.92;109211;1254;58752;-59
2023/09/20 10:16:02;;;;;;;7.30;5.20;;;;;;;24.78;46.75;100563.48;108555;1260;64244;-56
2023/09/20 10:18:33;;;;;;;9.40;6.00;;;;;;;24.81;46.71;100566.77;106373;1253;61817;-60
2023/09/20 10:21:04;;;;;;;7.50;5.20;;;;;;;24.82;46.14;100562.63;105364;1258;64118;-58
2023/09/20 10:23:35;;;;;;;8.70;5.70;;;;;;;24.79;45.73;100564.47;105407;1258;59539;-56
2023/09/20 10:26:02;;;;;;;11.70;5.50;;;;;;;24.74;45.45;100566.81;105098;1254;59801;-60
2023/09/20 10:28:36;;;;;;;8.70;5.00;;;;;;;24.69;45.66;100563.48;105011;1259;64500;-59
2023/09/20 10:31:04;;;;;;;8.20;5.20;;;;;;;24.64;45.77;100559.60;105206;1254;61715;-60
2023/09/20 10:33:41;;;;;;;8.60;5.70;;;;;;;24.60;45.93;100559.94;106142;1254;63954;-59
2023/09/20 10:36:09;;;;;;;8.20;5.70;;;;;;;24.58;45.95;100559.36;105180;1259;59747;-59
2023/09/20 10:38:39;;;;;;;7.90;5.50;;;;;;;24.56;45.89;100562.42;105263;1256;59638;-64
2023/09/20 10:41:10;;;;;;;8.20;5.10;;;;;;;24.56;45.93;100560.73;105082;1253;64491;-59
2023/09/20 10:43:37;;;;;;;7.30;5.20;;;;;;;24.57;45.96;100560.02;105355;1255;62193;-58
2023/09/20 10:46:14;;;;;;;8.80;5.10;;;;;;;24.62;45.87;100558.48;105359;1258;64223;-59
2023/09/20 10:48:44;;;;;;;7.50;4.90;;;;;;;24.68;45.87;100563.23;107584;1254;59661;-59
2023/09/20 10:51:11;;;;;;;8.70;5.40;;;;;;;24.76;46.05;100561.09;105300;1254;59692;-60
2023/09/20 10:53:50;;;;;;;7.70;5.50;;;;;;;24.86;45.92;100558.36;105241;1258;64222;-59
2023/09/20 10:56:52;;;;;;;11.70;5.30;;;;;;;24.98;45.86;100557.94;105160;1257;61772;-57
2023/09/20 10:59:21;;;;;;;9.40;5.40;;;;;;;25.11;45.20;100549.93;105664;1254;63803;-62
2023/09/20 11:01:50;;;;;;;14.30;5.00;;;;;;;25.17;45.05;100548.98;105700;1254;59731;-65
2023/09/20 11:04:20;;;;;;;7.00;5.00;;;;;;;25.24;45.00;100552.04;105763;1254;59561;-66
2023/09/20 11:06:53;;;;;;;9.00;6.00;;;;;;;25.31;45.10;100555.19;105134;1257;64332;-62
2023/09/20 11:09:22;;;;;;;10.40;6.20;;;;;;;25.38;45.14;100547.73;106509;1253;62107;-60
2023/09/20 11:11:50;;;;;;;10.30;6.20;;;;;;;25.41;45.08;100545.40;107237;1254;63888;-63
2023/09/20 11:14:23;;;;;;;8.90;6.60;;;;;;;25.45;45.36;100548.07;105708;1254;59653;-59
2023/09/20 11:16:50;;;;;;;15.10;7.10;;;;;;;25.51;45.53;100547.20;105731;1254;59788;-59
2023/09/20 11:19:19;;;;;;;9.30;7.00;;;;;;;25.55;45.69;100547.83;105204;1254;63122;-58
2023/09/20 11:21:47;;;;;;;14.80;7.20;;;;;;;25.60;45.59;100549.45;105559;1259;61974;-54
2023/09/20 11:24:16;;;;;;;10.90;6.40;;;;;;;25.65;45.73;100549.66;105748;1254;64499;-66
2023/09/20 11:26:47;;;;;;;10.10;6.50;;;;;;;25.71;44.92;100549.41;107505;1254;59267;-56
2023/09/20 11:29:15;;;;;;;10.10;5.90;;;;;;;25.68;44.49;100544.02;105742;1254;59658;-56
2023/09/20 11:31:44;;;;;;;9.30;6.10;;;;;;;25.65;44.58;100539.84;106688;1255;64421;-56
2023/09/20 11:34:12;;;;;;;8.50;6.20;;;;;;;25.62;44.44;100545.30;105131;1257;60450;-58
2023/09/20 11:36:42;;;;;;;8.70;6.50;;;;;;;25.55;44.58;100542.70;105212;1255;63785;-58
2023/09/20 11:39:13;;;;;;;9.20;5.80;;;;;;;25.49;44.90;100542.23;104945;1254;59653;-59
2023/09/20 11:41:44;;;;;;;9.90;6.10;;;;;;;25.48;45.01;100544.84;109165;1254;57508;-63
2023/09/20 11:44:11;;;;;;;7.30;5.00;;;;;;;25.49;44.94;100544.70;109177;1254;63223;-62
2023/09/20 11:46:38;;;;;;;11.70;5.80;;;;;;;25.48;44.63;100544.45;109054;1257;62168;-67
2023/09/20 11:49:06;;;;;;;9.10;6.10;;;;;;;25.48;44.77;100542.54;107822;1255;64500;-65
2023/09/20 11:51:34;;;;;;;8.30;6.00;;;;;;;25.52;45.09;100540.59;105018;1257;59685;-65
2023/09/20 11:54:05;;;;;;;9.40;6.30;;;;;;;25.58;45.20;100539.40;106574;1255;59369;-68
2023/09/20 11:56:33;;;;;;;10.40;6.10;;;;;;;25.64;44.97;100538.94;108700;1253;64325;-67
2023/09/20 11:59:03;;;;;;;10.70;6.40;;;;;;;25.66;44.69;100534.58;104917;1254;62774;-66
2023/09/20 12:01:29;;;;;;;10.50;6.40;;;;;;;25.66;44.64;100532.50;109055;1254;65313;-63
2023/09/20 12:03:56;;;;;;;10.60;6.20;;;;;;;25.68;44.79;100529.20;106162;1257;59752;-63
2023/09/20 12:06:26;;;;;;;8.30;5.90;;;;;;;25.71;44.63;100531.91;105544;1254;59702;-64
2023/09/20 12:08:54;;;;;;;11.30;6.70;;;;;;;25.75;44.54;100534.04;105594;1254;64267;-65
2023/09/20 12:11:22;;;;;;;9.10;6.10;;;;;;;25.79;44.57;100536.00;106483;1254;61341;-65
2023/09/20 12:13:49;;;;;;;12.20;6.90;;;;;;;25.81;44.79;100536.07;106398;1253;62883;-60
2023/09/20 12:16:16;;;;;;;8.80;6.50;;;;;;;25.83;44.76;100538.67;105244;1254;60455;-59
2023/09/20 12:18:44;;;;;;;11.10;6.10;;;;;;;25.85;44.47;100541.67;105353;1254;60570;-66
2023/09/20 12:21:15;;;;;;;30.70;8.70;;;;;;;25.84;44.37;100536.42;106722;1254;65198;-66
2023/09/20 12:23:42;;;;;;;10.50;6.30;;;;;;;25.84;44.49;100539.30;105934;1254;61703;-63
2023/09/20 12:26:09;;;;;;;9.00;5.70;;;;;;;25.82;44.20;100534.25;105136;1256;63969;-65
2023/09/20 12:28:36;;;;;;;12.80;6.70;;;;;;;25.74;44.17;100535.95;105785;1254;60617;-66
2023/09/20 12:31:03;;;;;;;8.80;5.90;;;;;;;25.65;44.24;100530.85;105093;1255;60557;-71